createdAt,value
2022-08-05T00:00:52.861Z,6.40
2022-08-05T00:01:52.921Z,8.00
2022-08-05T00:02:52.870Z,7.90
2022-08-05T00:03:52.821Z,8.30
2022-08-05T00:04:55.872Z,7.90
2022-08-05T00:06:04.801Z,7.00
2022-08-05T00:06:53.793Z,8.50
2022-08-05T00:08:01.041Z,7.80
2022-08-05T00:08:52.951Z,6.90
2022-08-05T00:09:52.771Z,8.10
2022-08-05T00:10:52.819Z,8.50
2022-08-05T00:11:55.644Z,6.90
2022-08-05T00:12:56.802Z,7.50
2022-08-05T00:13:53.742Z,10.00
2022-08-05T00:14:52.724Z,7.00
2022-08-05T00:15:56.021Z,7.00
2022-08-05T00:16:54.025Z,6.30
2022-08-05T00:17:52.705Z,7.70
2022-08-05T00:18:52.695Z,7.90
2022-08-05T00:20:01.863Z,7.20
2022-08-05T00:20:53.705Z,7.30
2022-08-05T00:21:54.018Z,7.00
2022-08-05T00:22:57.476Z,6.10
2022-08-05T00:24:05.048Z,7.40
2022-08-05T00:24:55.048Z,9.20
2022-08-05T00:25:52.644Z,7.80
2022-08-05T00:26:53.131Z,7.10
2022-08-05T00:27:52.636Z,7.60
2022-08-05T00:28:52.631Z,8.50
2022-08-05T00:29:52.622Z,7.90
2022-08-05T00:30:53.725Z,7.50
2022-08-05T00:32:10.576Z,8.50
2022-08-05T00:32:53.597Z,6.40
2022-08-05T00:34:53.219Z,5.80
2022-08-05T00:35:06.310Z,7.00
2022-08-05T00:36:16.581Z,8.20
2022-08-05T00:37:11.939Z,7.50
2022-08-05T00:37:54.066Z,8.00
2022-08-05T00:38:52.722Z,8.40
2022-08-05T00:39:57.829Z,8.80
2022-08-05T00:40:52.531Z,6.10
2022-08-05T00:41:55.534Z,6.80
2022-08-05T00:42:52.526Z,7.90
2022-08-05T00:43:52.512Z,7.50
2022-08-05T00:44:52.504Z,7.00
2022-08-05T00:45:52.501Z,7.30
2022-08-05T00:46:54.159Z,6.80
2022-08-05T00:47:57.385Z,7.60
2022-08-05T00:48:53.541Z,7.50
2022-08-05T00:49:52.466Z,6.90
2022-08-05T00:50:52.465Z,7.80
2022-08-05T00:51:52.475Z,7.60
2022-08-05T00:52:53.380Z,8.50
2022-08-05T00:54:02.792Z,8.30
2022-08-05T00:54:53.438Z,7.00
2022-08-05T00:55:52.425Z,8.00
2022-08-05T00:56:52.442Z,7.90
2022-08-05T00:57:55.344Z,7.30
2022-08-05T00:58:52.406Z,7.30
2022-08-05T00:59:52.406Z,7.00
2022-08-05T01:00:52.455Z,7.00
2022-08-05T01:01:52.478Z,6.70
2022-08-05T01:02:52.378Z,7.40
2022-08-05T01:03:52.369Z,7.70
2022-08-05T01:04:52.375Z,7.00
2022-08-05T01:05:54.578Z,7.30
2022-08-05T01:06:52.403Z,7.80
2022-08-05T01:07:52.342Z,7.30
2022-08-05T01:08:53.338Z,8.90
2022-08-05T01:09:55.681Z,7.70
2022-08-05T01:10:52.842Z,6.60
2022-08-05T01:11:52.335Z,8.70
2022-08-05T01:12:54.341Z,7.10
2022-08-05T01:13:58.216Z,7.70
2022-08-05T01:14:53.294Z,8.40
2022-08-05T01:15:52.311Z,7.10
2022-08-05T01:16:52.443Z,8.30
2022-08-05T01:17:53.696Z,7.40
2022-08-05T01:18:56.396Z,8.90
2022-08-05T01:20:02.124Z,8.70
2022-08-05T01:20:53.252Z,8.80
2022-08-05T01:21:52.243Z,7.50
2022-08-05T01:22:52.250Z,7.70
2022-08-05T01:23:53.023Z,7.10
2022-08-05T01:24:52.223Z,6.50
2022-08-05T01:25:53.632Z,8.10
2022-08-05T01:26:52.206Z,7.60
2022-08-05T01:27:55.862Z,8.50
2022-08-05T01:28:52.187Z,7.50
2022-08-05T01:29:52.189Z,6.80
2022-08-05T01:30:53.929Z,8.20
2022-08-05T01:31:52.181Z,7.90
2022-08-05T01:32:52.160Z,7.20
2022-08-05T01:33:53.775Z,7.10
2022-08-05T01:34:52.143Z,7.20
2022-08-05T01:35:53.521Z,8.40
2022-08-05T01:36:52.145Z,7.40
2022-08-05T01:37:52.122Z,8.30
2022-08-05T01:38:52.113Z,6.40
2022-08-05T01:39:52.226Z,7.50
2022-08-05T01:40:52.103Z,8.30
2022-08-05T01:41:52.114Z,6.80
2022-08-05T01:42:52.089Z,8.90
2022-08-05T01:43:52.074Z,7.40
2022-08-05T01:44:54.137Z,7.20
2022-08-05T01:45:56.284Z,7.00
2022-08-05T01:46:52.087Z,6.20
2022-08-05T01:47:54.431Z,8.10
2022-08-05T01:48:52.043Z,7.10
2022-08-05T01:50:01.628Z,8.20
2022-08-05T01:50:53.032Z,8.40
2022-08-05T01:51:52.084Z,7.50
2022-08-05T01:52:52.013Z,9.20
2022-08-05T01:53:57.327Z,8.90
2022-08-05T01:54:53.016Z,9.50
2022-08-05T01:55:51.993Z,9.00
2022-08-05T01:58:11.544Z,10.10
2022-08-05T01:58:13.576Z,8.50
2022-08-05T01:58:52.985Z,9.90
2022-08-05T01:59:51.956Z,8.90
2022-08-05T02:00:51.955Z,8.20
2022-08-05T02:01:52.005Z,9.10
2022-08-05T02:02:54.986Z,8.50
2022-08-05T02:03:51.932Z,7.90
2022-08-05T02:04:51.931Z,9.10
2022-08-05T02:05:53.489Z,10.20
2022-08-05T02:06:52.930Z,8.50
2022-08-05T02:07:59.797Z,8.90
2022-08-05T02:08:58.306Z,8.80
2022-08-05T02:09:52.884Z,8.00
2022-08-05T02:10:51.960Z,9.30
2022-08-05T02:11:52.580Z,9.30
2022-08-05T02:12:51.868Z,9.50
2022-08-05T02:13:53.595Z,7.20
2022-08-05T02:14:51.853Z,8.50
2022-08-05T02:15:51.842Z,8.00
2022-08-05T02:16:52.172Z,9.10
2022-08-05T02:18:31.653Z,9.80
2022-08-05T02:18:52.821Z,8.80
2022-08-05T02:19:51.808Z,8.20
2022-08-05T02:20:51.807Z,9.20
2022-08-05T02:21:51.805Z,9.50
2022-08-05T02:22:51.792Z,8.60
2022-08-05T02:23:51.780Z,8.10
2022-08-05T02:24:52.167Z,7.70
2022-08-05T02:25:51.769Z,9.20
2022-08-05T02:26:51.903Z,8.50
2022-08-05T02:27:59.080Z,8.90
2022-08-05T02:28:52.753Z,7.40
2022-08-05T02:29:59.978Z,8.40
2022-08-05T02:30:54.719Z,19.10
2022-08-05T02:31:51.741Z,49.40
2022-08-05T02:32:51.718Z,21.10
2022-08-05T02:33:57.235Z,17.20
2022-08-05T02:34:54.503Z,22.40
2022-08-05T02:35:56.331Z,19.50
2022-08-05T02:36:52.714Z,24.00
2022-08-05T02:37:54.103Z,23.40
2022-08-05T02:38:53.201Z,25.30
2022-08-05T02:39:51.849Z,23.40
2022-08-05T02:40:51.665Z,23.50
2022-08-05T02:42:00.953Z,24.20
2022-08-05T02:42:54.034Z,17.40
2022-08-05T02:44:02.263Z,17.20
2022-08-05T02:44:52.633Z,24.50
2022-08-05T02:45:53.931Z,24.60
2022-08-05T02:46:59.740Z,25.70
2022-08-05T02:48:11.402Z,18.80
2022-08-05T02:48:52.603Z,17.20
2022-08-05T02:49:51.594Z,19.90
2022-08-05T02:50:51.589Z,19.80
2022-08-05T02:52:04.119Z,23.60
2022-08-05T02:52:52.567Z,22.00
2022-08-05T02:53:54.694Z,28.70
2022-08-05T02:54:52.343Z,24.30
2022-08-05T02:55:54.486Z,23.80
2022-08-05T02:56:52.559Z,27.60
2022-08-05T02:58:10.101Z,28.30
2022-08-05T02:58:52.626Z,23.60
2022-08-05T02:59:52.051Z,25.70
2022-08-05T03:00:51.583Z,22.50
2022-08-05T03:01:51.606Z,24.90
2022-08-05T03:02:51.499Z,23.30
2022-08-05T03:04:02.907Z,26.40
2022-08-05T03:04:53.085Z,33.40
2022-08-05T03:06:55.220Z,32.50
2022-08-05T03:06:59.261Z,28.10
2022-08-05T03:08:04.440Z,31.80
2022-08-05T03:08:52.470Z,28.60
2022-08-05T03:09:51.929Z,28.50
2022-08-05T03:11:53.611Z,25.50
2022-08-05T03:11:55.383Z,25.20
2022-08-05T03:12:52.433Z,25.90
2022-08-05T03:14:03.260Z,28.00
2022-08-05T03:14:52.402Z,32.20
2022-08-05T03:15:51.859Z,31.50
2022-08-05T03:16:53.396Z,30.00
2022-08-05T03:17:54.091Z,26.40
2022-08-05T03:18:51.380Z,25.20
2022-08-05T03:19:51.379Z,22.80
2022-08-05T03:20:51.364Z,23.70
2022-08-05T03:21:51.369Z,23.20
2022-08-05T03:22:51.346Z,19.70
2022-08-05T03:23:51.348Z,30.10
2022-08-05T03:24:52.145Z,28.90
2022-08-05T03:26:04.971Z,22.50
2022-08-05T03:26:52.334Z,26.80
2022-08-05T03:27:59.108Z,25.20
2022-08-05T03:28:52.304Z,21.00
2022-08-05T03:30:06.957Z,21.10
2022-08-05T03:30:52.319Z,22.50
2022-08-05T03:31:56.691Z,26.90
2022-08-05T03:32:52.263Z,28.30
2022-08-05T03:33:53.164Z,25.50
2022-08-05T03:34:51.661Z,36.10
2022-08-05T03:35:51.734Z,28.70
2022-08-05T03:36:51.247Z,34.10
2022-08-05T03:37:51.226Z,28.00
2022-08-05T03:38:53.429Z,24.60
2022-08-05T03:39:59.487Z,33.00
2022-08-05T03:40:52.289Z,28.70
2022-08-05T03:41:52.659Z,25.70
2022-08-05T03:42:51.773Z,22.70
2022-08-05T03:44:08.699Z,21.60
2022-08-05T03:44:52.167Z,29.70
2022-08-05T03:45:57.546Z,28.90
2022-08-05T03:46:52.169Z,18.20
2022-08-05T03:47:51.153Z,18.70
2022-08-05T03:48:51.141Z,21.50
2022-08-05T03:49:52.463Z,15.70
2022-08-05T03:50:51.122Z,30.30
2022-08-05T03:52:50.256Z,35.40
2022-08-05T03:55:50.632Z,25.60
2022-08-05T03:55:53.476Z,26.90
2022-08-05T03:56:03.748Z,25.80
2022-08-05T03:56:11.536Z,19.40
2022-08-05T03:56:52.158Z,29.20
2022-08-05T03:57:51.077Z,25.90
2022-08-05T03:58:51.270Z,25.90
2022-08-05T03:59:54.666Z,22.60
2022-08-05T04:00:51.423Z,20.10
2022-08-05T04:01:51.180Z,20.70
2022-08-05T04:02:57.660Z,30.40
2022-08-05T04:04:10.407Z,21.30
2022-08-05T04:04:52.013Z,15.70
2022-08-05T04:05:51.010Z,22.20
2022-08-05T04:06:51.400Z,23.30
2022-08-05T04:07:57.730Z,21.10
2022-08-05T04:08:51.985Z,37.10
2022-08-05T04:09:53.227Z,24.70
2022-08-05T04:10:50.966Z,27.10
2022-08-05T04:11:52.729Z,28.00
2022-08-05T04:12:50.967Z,22.80
2022-08-05T04:13:53.545Z,25.10
2022-08-05T04:14:50.940Z,20.00
2022-08-05T04:16:03.036Z,24.50
2022-08-05T04:16:51.945Z,28.10
2022-08-05T04:17:56.151Z,19.90
2022-08-05T04:18:54.489Z,18.70
2022-08-05T04:19:54.475Z,20.10
2022-08-05T04:20:51.893Z,12.50
2022-08-05T04:22:09.352Z,11.60
2022-08-05T04:22:51.901Z,12.50
2022-08-05T04:24:05.057Z,10.20
2022-08-05T04:24:52.257Z,11.90
2022-08-05T04:26:00.243Z,12.10
2022-08-05T04:26:51.839Z,11.20
2022-08-05T04:27:57.258Z,11.90
2022-08-05T04:28:52.250Z,12.10
2022-08-05T04:29:50.821Z,14.70
2022-08-05T04:30:50.818Z,13.00
2022-08-05T04:31:50.801Z,9.50
2022-08-05T04:32:50.813Z,16.40
2022-08-05T04:34:18.259Z,15.30
2022-08-05T04:34:51.780Z,14.90
2022-08-05T04:36:15.738Z,15.90
2022-08-05T04:36:51.765Z,19.40
2022-08-05T04:38:00.887Z,16.60
2022-08-05T04:38:52.114Z,13.50
2022-08-05T04:39:52.951Z,13.50
2022-08-05T04:40:51.058Z,12.40
2022-08-05T04:41:51.245Z,14.30
2022-08-05T04:42:50.738Z,13.70
2022-08-05T04:43:52.147Z,16.10
2022-08-05T04:44:50.706Z,16.10
2022-08-05T04:45:55.591Z,12.90
2022-08-05T04:46:50.690Z,15.40
2022-08-05T04:47:50.785Z,13.70
2022-08-05T04:48:51.711Z,13.50
2022-08-05T04:50:02.839Z,16.10
2022-08-05T04:51:01.459Z,16.60
2022-08-05T04:52:00.282Z,17.20
2022-08-05T04:52:51.666Z,18.80
2022-08-05T04:53:50.643Z,20.40
2022-08-05T04:54:50.859Z,21.50
2022-08-05T04:56:33.487Z,21.50
2022-08-05T04:56:51.617Z,16.90
2022-08-05T04:57:51.539Z,18.40
2022-08-05T04:58:50.605Z,22.80
2022-08-05T04:59:50.600Z,21.90
2022-08-05T05:00:51.003Z,20.90
2022-08-05T05:02:35.389Z,15.60
2022-08-05T05:02:51.687Z,16.00
2022-08-05T05:03:50.572Z,18.00
2022-08-05T05:04:51.379Z,14.60
2022-08-05T05:06:35.950Z,16.40
2022-08-05T05:06:57.417Z,17.90
2022-08-05T05:07:56.052Z,21.00
2022-08-05T05:08:50.525Z,18.10
2022-08-05T05:09:50.516Z,23.40
2022-08-05T05:10:56.191Z,17.20
2022-08-05T05:11:53.202Z,18.80
2022-08-05T05:12:50.715Z,16.70
2022-08-05T05:13:50.490Z,18.40
2022-08-05T05:14:51.433Z,21.40
2022-08-05T05:15:54.380Z,34.70
2022-08-05T05:16:50.594Z,23.80
2022-08-05T05:17:55.679Z,19.20
2022-08-05T05:19:16.465Z,32.20
2022-08-05T05:19:51.448Z,17.80
2022-08-05T05:20:50.522Z,23.90
2022-08-05T05:21:50.438Z,28.20
2022-08-05T05:22:51.440Z,23.20
2022-08-05T05:24:04.035Z,22.40
2022-08-05T05:24:58.677Z,22.50
2022-08-05T05:25:51.398Z,17.40
2022-08-05T05:26:51.914Z,19.30
2022-08-05T05:27:53.935Z,24.70
2022-08-05T05:28:51.387Z,25.70
2022-08-05T05:30:04.284Z,22.60
2022-08-05T05:30:51.352Z,23.70
2022-08-05T05:31:50.352Z,27.10
2022-08-05T05:32:50.338Z,27.60
2022-08-05T05:34:01.962Z,28.10
2022-08-05T05:34:52.309Z,23.20
2022-08-05T05:35:50.336Z,25.90
2022-08-05T05:36:51.225Z,30.90
2022-08-05T05:38:00.229Z,35.60
2022-08-05T05:38:51.319Z,28.80
2022-08-05T05:39:50.378Z,28.10
2022-08-05T05:40:51.331Z,24.70
2022-08-05T05:41:54.300Z,33.00
2022-08-05T05:42:50.266Z,31.90
2022-08-05T05:43:58.482Z,25.90
2022-08-05T05:44:51.266Z,23.00
2022-08-05T05:45:50.252Z,25.10
2022-08-05T05:46:50.237Z,44.00
2022-08-05T05:48:06.094Z,25.70
2022-08-05T05:48:51.223Z,33.10
2022-08-05T05:49:52.521Z,31.40
2022-08-05T05:50:51.208Z,25.80
2022-08-05T05:51:50.753Z,20.30
2022-08-05T05:52:50.190Z,28.00
2022-08-05T05:53:57.446Z,29.50
2022-08-05T05:54:51.348Z,36.70
2022-08-05T05:55:52.196Z,35.90
2022-08-05T05:56:51.160Z,32.40
2022-08-05T05:57:52.962Z,28.20
2022-08-05T05:58:50.326Z,30.00
2022-08-05T05:59:50.142Z,23.60
2022-08-05T06:00:50.130Z,27.90
2022-08-05T06:01:57.129Z,30.90
2022-08-05T06:02:51.117Z,28.80
2022-08-05T06:04:01.198Z,23.30
2022-08-05T06:04:51.364Z,23.00
2022-08-05T06:05:54.180Z,23.40
2022-08-05T06:06:51.087Z,25.10
2022-08-05T06:08:01.098Z,34.40
2022-08-05T06:08:51.073Z,23.50
2022-08-05T06:10:03.441Z,34.80
2022-08-05T06:10:52.873Z,32.80
2022-08-05T06:12:01.321Z,23.50
2022-08-05T06:12:51.045Z,34.50
2022-08-05T06:13:50.200Z,26.20
2022-08-05T06:14:50.036Z,35.00
2022-08-05T06:16:31.066Z,27.50
2022-08-05T06:16:51.010Z,29.50
2022-08-05T06:17:50.337Z,26.00
2022-08-05T06:18:49.996Z,27.70
2022-08-05T06:19:57.093Z,16.30
2022-08-05T06:20:49.980Z,15.60
2022-08-05T06:21:50.044Z,15.00
2022-08-05T06:22:49.961Z,17.90
2022-08-05T06:23:49.975Z,29.50
2022-08-05T06:24:49.961Z,22.20
2022-08-05T06:26:13.007Z,32.40
2022-08-05T06:26:52.303Z,26.60
2022-08-05T06:28:11.814Z,19.40
2022-08-05T06:28:50.916Z,24.60
2022-08-05T06:30:04.406Z,41.30
2022-08-05T06:30:50.898Z,28.20
2022-08-05T06:31:50.702Z,27.90
2022-08-05T06:32:50.802Z,25.00
2022-08-05T06:34:07.774Z,26.50
2022-08-05T06:34:53.518Z,14.00
2022-08-05T06:36:07.160Z,18.00
2022-08-05T06:36:57.218Z,14.60
2022-08-05T06:37:57.575Z,13.40
2022-08-05T06:38:50.857Z,15.20
2022-08-05T06:39:49.828Z,14.20
2022-08-05T06:40:49.826Z,16.80
2022-08-05T06:41:49.819Z,14.40
2022-08-05T06:42:51.595Z,21.60
2022-08-05T06:43:57.604Z,24.00
2022-08-05T06:44:50.795Z,13.40
2022-08-05T06:46:06.753Z,19.50
2022-08-05T06:46:51.274Z,22.80
2022-08-05T06:48:46.857Z,27.70
2022-08-05T06:48:56.695Z,21.90
2022-08-05T06:50:00.714Z,20.70
2022-08-05T06:50:50.750Z,13.50
2022-08-05T06:51:49.743Z,22.20
2022-08-05T06:53:04.047Z,23.30
2022-08-05T06:53:53.642Z,14.40
2022-08-05T06:54:52.110Z,13.30
2022-08-05T06:55:49.714Z,12.20
2022-08-05T06:56:54.393Z,14.30
2022-08-05T06:57:57.870Z,15.50
2022-08-05T06:58:50.697Z,17.60
2022-08-05T06:59:57.894Z,13.00
2022-08-05T07:00:49.692Z,13.90
2022-08-05T07:01:52.856Z,14.60
2022-08-05T07:02:53.942Z,13.70
2022-08-05T07:03:49.660Z,12.40
2022-08-05T07:04:49.658Z,16.10
2022-08-05T07:05:49.754Z,13.00
2022-08-05T07:06:50.425Z,17.00
2022-08-05T07:07:49.664Z,11.30
2022-08-05T07:08:54.503Z,10.70
2022-08-05T07:09:55.555Z,13.20
2022-08-05T07:10:53.234Z,14.50
2022-08-05T07:11:49.661Z,15.20
2022-08-05T07:12:49.579Z,14.40
2022-08-05T07:13:59.922Z,11.90
2022-08-05T07:14:50.603Z,13.10
2022-08-05T07:16:01.623Z,14.40
2022-08-05T07:18:08.589Z,15.30
2022-08-05T07:18:08.700Z,16.30
2022-08-05T07:18:50.533Z,12.50
2022-08-05T07:20:50.523Z,15.50
2022-08-05T07:22:00.421Z,15.30
2022-08-05T07:22:50.508Z,16.20
2022-08-05T07:23:50.590Z,12.70
2022-08-05T07:24:53.666Z,14.20
2022-08-05T07:25:55.316Z,15.70
2022-08-05T07:26:50.475Z,14.00
2022-08-05T07:28:00.800Z,14.90
2022-08-05T07:28:50.461Z,11.90
2022-08-05T07:30:23.806Z,13.40
2022-08-05T07:30:54.841Z,16.50
2022-08-05T07:31:55.013Z,12.80
2022-08-05T07:32:51.043Z,12.30
2022-08-05T07:33:49.424Z,14.70
2022-08-05T07:34:49.435Z,14.20
2022-08-05T07:36:02.606Z,12.90
2022-08-05T07:36:51.225Z,11.30
2022-08-05T07:37:49.391Z,13.40
2022-08-05T07:38:49.389Z,14.30
2022-08-05T07:40:26.043Z,11.70
2022-08-05T07:40:55.612Z,14.20
2022-08-05T07:42:14.193Z,12.80
2022-08-05T07:42:50.362Z,15.20
2022-08-05T07:43:49.349Z,12.90
2022-08-05T07:44:49.449Z,13.20
2022-08-05T07:45:58.074Z,12.00
2022-08-05T07:46:50.138Z,17.40
2022-08-05T07:47:49.319Z,13.40
2022-08-05T07:49:02.294Z,15.40
2022-08-05T07:49:54.505Z,12.10
2022-08-05T07:50:49.323Z,12.70
2022-08-05T07:51:54.473Z,10.10
2022-08-05T07:52:50.278Z,12.60
2022-08-05T07:53:50.267Z,10.80
2022-08-05T07:54:49.439Z,13.80
2022-08-05T07:56:06.732Z,12.80
2022-08-05T07:57:02.393Z,12.50
2022-08-05T07:57:58.908Z,11.80
2022-08-05T07:58:57.529Z,11.90
2022-08-05T07:59:50.227Z,11.20
2022-08-05T08:00:49.281Z,12.90
2022-08-05T08:01:57.659Z,11.20
2022-08-05T08:03:14.322Z,12.50
2022-08-05T08:03:51.344Z,12.50
2022-08-05T08:04:49.743Z,14.50
2022-08-05T08:05:49.749Z,11.20
2022-08-05T08:06:49.179Z,14.40
2022-08-05T08:07:59.849Z,12.10
2022-08-05T08:08:50.190Z,14.40
2022-08-05T08:09:49.151Z,12.00
2022-08-05T08:10:49.232Z,11.30
2022-08-05T08:11:59.012Z,11.80
2022-08-05T08:12:50.162Z,11.70
2022-08-05T08:14:00.436Z,9.40
2022-08-05T08:14:50.298Z,14.00
2022-08-05T08:16:35.376Z,12.00
2022-08-05T08:16:53.499Z,11.70
2022-08-05T08:17:52.499Z,11.80
2022-08-05T08:18:49.905Z,10.60
2022-08-05T08:20:42.981Z,10.70
2022-08-05T08:21:01.937Z,12.00
2022-08-05T08:21:50.073Z,10.80
2022-08-05T08:22:49.057Z,11.90
2022-08-05T08:24:02.727Z,12.10
2022-08-05T08:24:51.840Z,10.90
2022-08-05T08:26:02.164Z,10.90
2022-08-05T08:26:50.041Z,9.10
2022-08-05T08:27:51.138Z,10.10
2022-08-05T08:28:59.176Z,10.90
2022-08-05T08:30:06.116Z,11.40
2022-08-05T08:30:50.280Z,9.70
2022-08-05T08:31:48.994Z,11.40
2022-08-05T08:32:48.983Z,9.80
2022-08-05T08:33:51.569Z,10.60
2022-08-05T08:34:48.992Z,10.30
2022-08-05T08:35:52.493Z,10.30
2022-08-05T08:36:55.718Z,10.60
2022-08-05T08:37:53.513Z,9.90
2022-08-05T08:38:53.484Z,11.10
2022-08-05T08:39:49.625Z,10.30
2022-08-05T08:40:51.650Z,9.30
2022-08-05T08:41:50.945Z,10.70
2022-08-05T08:42:52.599Z,9.70
2022-08-05T08:45:16.389Z,10.80
2022-08-05T08:45:18.819Z,10.20
2022-08-05T08:45:49.900Z,9.80
2022-08-05T08:46:48.882Z,9.60
2022-08-05T08:48:10.461Z,9.70
2022-08-05T08:49:07.795Z,8.20
2022-08-05T08:50:14.269Z,10.40
2022-08-05T08:51:22.519Z,10.30
2022-08-05T08:52:06.098Z,9.40
2022-08-05T08:52:51.696Z,9.30
2022-08-05T08:53:48.829Z,9.80
2022-08-05T08:54:48.838Z,9.30
2022-08-05T08:56:04.943Z,8.80
2022-08-05T08:56:49.809Z,9.10
2022-08-05T08:57:58.245Z,9.30
2022-08-05T08:58:50.580Z,9.50
2022-08-05T08:59:48.950Z,9.50
2022-08-05T09:00:48.831Z,9.40
2022-08-05T09:01:57.582Z,9.00
2022-08-05T09:02:49.768Z,9.20
2022-08-05T09:03:55.263Z,8.90
2022-08-05T09:05:16.331Z,9.20
2022-08-05T09:06:08.971Z,8.80
2022-08-05T09:06:49.883Z,9.00
2022-08-05T09:07:58.078Z,7.90
2022-08-05T09:08:49.728Z,8.50
2022-08-05T09:09:48.710Z,9.50
2022-08-05T09:10:48.723Z,8.40
2022-08-05T09:11:53.108Z,8.20
2022-08-05T09:12:51.078Z,8.60
2022-08-05T09:14:10.113Z,9.10
2022-08-05T09:14:56.315Z,8.70
2022-08-05T09:15:49.688Z,8.70
2022-08-05T09:16:49.106Z,8.20
2022-08-05T09:17:49.601Z,7.80
2022-08-05T09:18:48.652Z,8.30
2022-08-05T09:20:01.945Z,8.80
2022-08-05T09:20:49.691Z,9.00
2022-08-05T09:22:17.937Z,8.40
2022-08-05T09:22:51.794Z,8.30
2022-08-05T09:23:48.608Z,8.70
2022-08-05T09:24:48.621Z,7.70
2022-08-05T09:26:01.668Z,7.90
2022-08-05T09:26:51.928Z,8.40
2022-08-05T09:28:04.386Z,8.30
2022-08-05T09:28:49.661Z,8.70
2022-08-05T09:29:48.569Z,8.70
2022-08-05T09:30:49.445Z,7.90
2022-08-05T09:32:40.933Z,8.80
2022-08-05T09:32:49.569Z,9.50
2022-08-05T09:33:48.541Z,8.50
2022-08-05T09:34:48.535Z,8.30
2022-08-05T09:35:48.569Z,8.80
2022-08-05T09:36:56.100Z,7.30
2022-08-05T09:38:12.918Z,7.70
2022-08-05T09:38:49.506Z,7.80
2022-08-05T09:39:55.899Z,8.40
2022-08-05T09:40:52.147Z,8.00
2022-08-05T09:41:51.643Z,8.00
2022-08-05T09:42:49.479Z,7.20
2022-08-05T09:43:49.390Z,8.30
2022-08-05T09:44:49.414Z,7.60
2022-08-05T09:46:06.757Z,7.30
2022-08-05T09:46:51.840Z,7.40
2022-08-05T09:47:56.109Z,7.10
2022-08-05T09:48:55.409Z,8.50
2022-08-05T09:50:00.541Z,7.90
2022-08-05T09:50:49.435Z,8.40
2022-08-05T09:51:49.964Z,7.00
2022-08-05T09:52:48.407Z,8.40
2022-08-05T09:53:54.951Z,8.40
2022-08-05T09:54:49.388Z,8.00
2022-08-05T09:55:57.297Z,7.20
2022-08-05T09:56:51.828Z,7.70
2022-08-05T09:57:48.360Z,7.30
2022-08-05T09:58:50.259Z,8.00
2022-08-05T09:59:48.349Z,8.10
2022-08-05T10:00:48.357Z,8.10
2022-08-05T10:01:48.338Z,7.30
2022-08-05T10:02:49.425Z,7.30
2022-08-05T10:03:59.575Z,6.70
2022-08-05T10:04:49.572Z,7.10
2022-08-05T10:05:48.456Z,7.60
2022-08-05T10:06:49.788Z,8.80
2022-08-05T10:08:35.510Z,8.30
2022-08-05T10:08:50.349Z,7.50
2022-08-05T10:09:48.291Z,6.90
2022-08-05T10:10:50.411Z,7.60
2022-08-05T10:11:49.260Z,7.50
2022-08-05T10:12:49.457Z,6.90
2022-08-05T10:13:49.312Z,7.50
2022-08-05T10:14:48.239Z,8.10
2022-08-05T10:15:48.257Z,7.30
2022-08-05T10:16:52.823Z,7.10
2022-08-05T10:17:54.642Z,8.90
2022-08-05T10:18:49.211Z,7.40
2022-08-05T10:20:04.119Z,7.50
2022-08-05T10:20:49.235Z,9.00
2022-08-05T10:21:48.184Z,7.40
2022-08-05T10:22:50.757Z,7.70
2022-08-05T10:24:00.165Z,8.30
2022-08-05T10:24:49.173Z,7.40
2022-08-05T10:25:48.204Z,6.70
2022-08-05T10:26:52.224Z,7.30
2022-08-05T10:28:13.723Z,6.50
2022-08-05T10:28:49.165Z,6.90
2022-08-05T10:30:41.897Z,7.30
2022-08-05T10:32:48.001Z,7.50
2022-08-05T10:32:59.833Z,7.10
2022-08-05T10:33:01.150Z,6.90
2022-08-05T10:33:54.287Z,7.00
2022-08-05T10:34:49.102Z,6.60
2022-08-05T10:35:59.017Z,7.60
2022-08-05T10:36:49.079Z,7.30
2022-08-05T10:37:48.068Z,6.40
2022-08-05T10:38:48.067Z,7.10
2022-08-05T10:39:59.366Z,7.10
2022-08-05T10:40:49.110Z,6.20
2022-08-05T10:41:48.041Z,6.50
2022-08-05T10:42:48.085Z,6.30
2022-08-05T10:43:48.032Z,6.70
2022-08-05T10:44:48.022Z,7.10
2022-08-05T10:45:48.014Z,6.70
2022-08-05T10:46:51.017Z,6.70
2022-08-05T10:48:27.565Z,6.70
2022-08-05T10:48:57.427Z,6.10
2022-08-05T10:50:31.615Z,6.40
2022-08-05T10:50:48.980Z,6.40
2022-08-05T10:51:48.680Z,5.60
2022-08-05T10:52:49.714Z,6.50
2022-08-05T10:53:47.953Z,6.30
2022-08-05T10:54:56.825Z,6.10
2022-08-05T10:56:05.420Z,6.70
2022-08-05T10:56:49.441Z,6.30
2022-08-05T10:57:51.295Z,6.30
2022-08-05T10:58:49.495Z,6.40
2022-08-05T11:00:02.640Z,7.20
2022-08-05T11:00:55.476Z,6.50
2022-08-05T11:01:54.928Z,5.80
2022-08-05T11:02:48.898Z,6.30
2022-08-05T11:03:47.901Z,6.10
2022-08-05T11:04:47.875Z,6.30
2022-08-05T11:05:47.882Z,6.00
2022-08-05T11:06:47.873Z,5.80
2022-08-05T11:08:04.619Z,6.10
2022-08-05T11:08:48.854Z,5.60
2022-08-05T11:09:47.837Z,6.10
2022-08-05T11:10:50.414Z,5.50
2022-08-05T11:11:53.268Z,5.40
2022-08-05T11:12:54.244Z,5.60
2022-08-05T11:13:55.039Z,6.10
2022-08-05T11:15:11.406Z,5.40
2022-08-05T11:16:00.688Z,5.20
2022-08-05T11:16:57.260Z,7.00
2022-08-05T11:17:59.385Z,6.40
2022-08-05T11:18:48.833Z,5.80
2022-08-05T11:20:11.399Z,6.50
2022-08-05T11:20:48.782Z,6.90
2022-08-05T11:21:49.547Z,6.90
2022-08-05T11:22:50.066Z,5.70
2022-08-05T11:24:03.913Z,6.20
2022-08-05T11:24:50.682Z,7.00
2022-08-05T11:26:04.181Z,6.00
2022-08-05T11:26:49.672Z,5.40
2022-08-05T11:27:51.988Z,6.00
2022-08-05T11:28:48.714Z,6.80
2022-08-05T11:29:47.691Z,7.60
2022-08-05T11:30:47.704Z,5.40
2022-08-05T11:31:56.968Z,6.50
2022-08-05T11:32:48.690Z,5.20
2022-08-05T11:33:48.089Z,6.10
2022-08-05T11:34:54.216Z,5.40
2022-08-05T11:36:07.643Z,6.40
2022-08-05T11:36:52.926Z,5.80
2022-08-05T11:38:26.735Z,7.70
2022-08-05T11:38:51.122Z,5.80
2022-08-05T11:39:48.184Z,5.70
2022-08-05T11:40:47.637Z,5.30
2022-08-05T11:42:01.520Z,5.50
2022-08-05T11:42:48.637Z,6.20
2022-08-05T11:44:04.574Z,5.90
2022-08-05T11:44:53.786Z,5.40
2022-08-05T11:46:27.437Z,5.00
2022-08-05T11:47:09.897Z,5.80
2022-08-05T11:47:50.350Z,5.80
2022-08-05T11:48:48.555Z,6.10
2022-08-05T11:49:49.882Z,5.70
2022-08-05T11:50:47.544Z,6.80
2022-08-05T11:51:49.406Z,5.70
2022-08-05T11:52:49.002Z,5.40
2022-08-05T11:53:47.525Z,5.70
2022-08-05T11:54:48.509Z,7.00
2022-08-05T11:55:48.510Z,5.90
2022-08-05T11:56:50.250Z,5.70
2022-08-05T11:58:10.417Z,6.70
2022-08-05T11:58:53.146Z,6.20
2022-08-05T11:59:50.150Z,7.10
2022-08-05T12:00:47.474Z,5.30
2022-08-05T12:01:48.482Z,6.90
2022-08-05T12:02:47.532Z,6.80
2022-08-05T12:03:56.023Z,5.80
2022-08-05T12:04:59.020Z,6.40
2022-08-05T12:05:48.430Z,6.20
2022-08-05T12:06:48.692Z,6.40
2022-08-05T12:08:08.694Z,6.00
2022-08-05T12:08:50.627Z,6.00
2022-08-05T12:09:53.420Z,6.40
2022-08-05T12:10:48.717Z,6.10
2022-08-05T12:11:47.572Z,5.70
2022-08-05T12:12:59.536Z,6.70
2022-08-05T12:13:49.971Z,6.80
2022-08-05T12:14:47.458Z,7.10
2022-08-05T12:15:50.142Z,5.70
2022-08-05T12:16:47.401Z,6.50
2022-08-05T12:18:04.136Z,6.60
2022-08-05T12:18:49.593Z,7.00
2022-08-05T12:20:17.654Z,6.60
2022-08-05T12:20:48.325Z,6.40
2022-08-05T12:21:47.601Z,6.60
2022-08-05T12:22:47.312Z,7.00
2022-08-05T12:23:47.474Z,6.40
2022-08-05T12:24:49.584Z,6.10
2022-08-05T12:25:47.288Z,6.20
2022-08-05T12:26:47.296Z,7.60
2022-08-05T12:27:53.435Z,6.00
2022-08-05T12:28:48.268Z,6.90
2022-08-05T12:29:53.928Z,6.50
2022-08-05T12:30:47.247Z,6.10
2022-08-05T12:31:53.116Z,8.20
2022-08-05T12:32:50.343Z,6.90
2022-08-05T12:33:47.240Z,7.10
2022-08-05T12:34:47.221Z,7.00
2022-08-05T12:35:47.268Z,6.20
2022-08-05T12:36:47.214Z,6.90
2022-08-05T12:37:47.190Z,6.60
2022-08-05T12:38:47.187Z,6.30
2022-08-05T12:39:51.052Z,6.80
2022-08-05T12:40:47.180Z,6.30
2022-08-05T12:41:47.178Z,6.00
2022-08-05T12:42:47.152Z,7.40
2022-08-05T12:43:47.152Z,6.20
2022-08-05T12:44:47.505Z,7.20
2022-08-05T12:45:48.308Z,6.50
2022-08-05T12:46:47.134Z,7.50
2022-08-05T12:48:01.394Z,6.20
2022-08-05T12:48:48.106Z,5.50
2022-08-05T12:50:02.234Z,7.40
2022-08-05T12:50:48.088Z,6.40
2022-08-05T12:52:14.525Z,7.10
2022-08-05T12:52:48.079Z,6.20
2022-08-05T12:53:47.480Z,6.20
2022-08-05T12:54:47.097Z,6.60
2022-08-05T12:55:47.061Z,6.20
2022-08-05T12:56:47.069Z,6.10
2022-08-05T12:58:50.059Z,6.50
2022-08-05T12:58:53.883Z,6.50
2022-08-05T13:01:57.149Z,6.60
2022-08-05T13:02:01.800Z,6.60
2022-08-05T13:02:03.366Z,6.20
2022-08-05T13:02:55.513Z,7.10
2022-08-05T13:03:48.831Z,6.20
2022-08-05T13:04:54.528Z,6.20
2022-08-05T13:05:47.999Z,6.90
2022-08-05T13:06:51.746Z,7.00
2022-08-05T13:07:57.441Z,7.50